Portada
METAR-TAF:

METAR-TAF

Aeropuertos :

Aeropuerto de Santiago de Compostela

Santiago de Compostela, España

latitud: 42-54N, longitud: 008-26W, altitud: 370 m

Observación

El informe se hizo hace 30 minutos, a las 23:00 UTC
Viento 4 kt del noroeste, variando entre oeste y norte-noroeste
Temperatura 17°C
Humedad 94%
Presión 1019 hPa
Visibilidad 10 km o más
sin nubes por debajo de 1500 m y sin presencia de cumulonimbus.

METAR: LEST 082300Z 31004KT 280V340 CAVOK 17/16 Q1019 NOSIG

Hora: 01:30 (23:30 UTC)

Pronóstico

El informe se hizo hace 6 horas y 30 minutos, a las 17:00 UTC
Pronóstico válido del 08 a las 18 UTC al 09 a las 18 UTC
Viento 8 kt del norte
Visibilidad 10 km o más
Escasas nubes a una altura de 2000 ft
Probabilidad 40% :
Temporalmente
del 09 a las 12 UTC al 09 a las 15 UTC
Viento 10 kt del oeste

TAF: LEST 081700Z 0818/0918 35008KT 9999 FEW020 TX30/0915Z TN16/0906Z PROB40 TEMPO 0912/0915 28010KT

Observaciones y pronósticos meteorológicos de más de 4000 aeropuertos (mensajes METAR y TAF).

Los puntos amarillos y rojos representan las estaciones disponibles.

Ponga el ratón en el punto deseado para ver el nombre de la estación.

Haga clic para ver las observaciones y los pronósticos meteorológicos.

Para cambiar el mapa : haga clic en los botones verdes con una cruz de color negro para hacer un zoom, en el botón verde con un guión para alejar o en las flechas verdes para mapas adyacentes.


METAR-TAF: